Latest Weather Observations for Casey (Wilkins Runway)*

IDT60801

Issued at 6:05 am EDT Saturday 22 November 2014 (issued every 30 minutes, with the page automatically refreshed every 10 minutes)

About weather observations | Map of weather stations | Latest weather observations for ANT | Other Formats
Station Details ID: 300050 Name: WILKINS RUNWAY EAST Lat: -66.68 Lon: 111.53 Height: 753.0 m
Data from the previous 72 hours. | See also: Recent months for locations in Antarctica
Date/Time
EDT
Temp
°C
App
Temp
°C
Dew
Point
Rel
Hum
%
Delta-T
°C
Wind Press
QNH
hPa
Press
MSL
hPa
Rain
since 9 am
mm
Dir
 
Spd
km/h
Gust
km/h
Spd
kts
Gust
kts
22/06:00am -11.7 -16.2 -14.0 83 - NNW 6 6 3 3 989.8 - -
22/05:30am -11.6 -15.3 -14.0 82 - NW 2 2 1 1 990.0 - -
22/05:00am -11.4 -15.1 -14.0 81 - WNW 2 4 1 2 990.1 - -
22/04:30am -11.4 -15.5 -14.0 81 - WNW 4 7 2 4 990.3 - -
22/04:00am -10.8 -15.3 -14.3 75 - ENE 6 7 3 4 990.3 - -
22/03:30am -11.1 -15.7 -13.0 86 - E 7 7 4 4 990.6 - -
22/03:00am -11.2 -15.8 -13.1 86 - ESE 7 9 4 5 990.9 - -
22/02:30am -11.0 -15.4 -13.0 85 - SE 6 9 3 5 991.1 - -
22/02:00am -11.0 -15.4 -13.2 84 - SSE 6 7 3 4 991.3 - -
22/01:30am -11.4 -15.8 -13.8 82 - NNW 6 6 3 3 991.5 - -
22/01:00am -11.5 -15.9 -13.4 86 - NW 6 7 3 4 991.6 - -
22/12:30am -11.3 -15.9 -13.5 84 - NW 7 9 4 5 991.7 - -
22/12:00am -11.2 -15.8 -13.6 82 - NW 7 9 4 5 991.7 - -
 
Date/Time
EDT
Temp
°C
App
Temp
°C
Dew
Point
Rel
Hum
%
Delta-T
°C
Wind Press
QNH
hPa
Press
MSL
hPa
Rain
since 9 am
mm
Dir
 
Spd
km/h
Gust
km/h
Spd
kts
Gust
kts
21/11:30pm -10.5 -15.5 -13.6 78 - N 9 11 5 6 991.7 - -
21/11:00pm -10.5 -15.5 -13.7 77 - N 9 15 5 8 991.9 - -
21/10:30pm -10.2 -16.0 -13.6 76 - N 13 17 7 9 991.9 - -
21/10:00pm -10.2 -16.7 -13.3 78 - N 17 22 9 12 992.1 - -
21/09:30pm -9.8 -15.9 -13.5 74 - N 15 19 8 10 992.2 - -
21/09:00pm -9.7 -16.2 -13.6 73 - N 17 20 9 11 992.2 - -
21/08:30pm -9.5 -16.0 -13.4 73 - N 17 20 9 11 992.2 - -
21/08:00pm -9.5 -16.0 -13.4 73 - N 17 20 9 11 992.1 - -
21/07:42pm -9.4 -15.9 -13.5 72 - N 17 20 9 11 992.1 - -
21/07:30pm -9.4 -16.3 -13.5 72 - N 19 20 10 11 992.1 - -
21/07:17pm -9.4 -16.3 -13.7 71 - N 19 20 10 11 992.1 - -
21/07:02pm -9.2 -16.1 -13.8 69 - N 19 20 10 11 991.9 - -
21/06:30pm -9.1 -15.6 -13.7 69 - N 17 20 9 11 992.1 - -
21/06:00pm -9.0 -15.5 -13.3 71 - N 17 19 9 10 992.2 - -
21/05:30pm -8.9 -15.4 -13.5 69 - N 17 20 9 11 991.9 - -
21/05:27pm -8.9 -15.4 -13.5 69 - N 17 20 9 11 991.9 - -
21/05:00pm -8.9 -15.8 -14.1 66 - N 19 20 10 11 992.1 - -
21/04:30pm -8.9 -15.8 -13.9 67 - N 19 20 10 11 991.9 - -
21/04:00pm -8.8 -15.3 -14.0 66 - N 17 20 9 11 991.9 - -
21/03:30pm -8.9 -15.5 -14.4 64 - N 17 20 9 11 991.9 - -
21/03:00pm -8.7 -14.9 -14.1 65 - N 15 19 8 10 991.9 - -
21/02:30pm -9.1 -15.6 -13.9 68 - N 17 20 9 11 991.9 - -
21/02:00pm -8.9 -14.7 -14.1 66 - N 13 17 7 9 991.8 - -
21/01:30pm -8.7 -13.8 -14.6 62 - N 9 13 5 7 991.9 - -
21/01:00pm -8.4 -12.9 -14.4 62 - NNE 6 7 3 4 991.8 - -
21/12:30pm -9.4 -13.1 -14.2 68 - WSW 2 6 1 3 991.9 - -
21/12:00pm -9.9 -13.9 -13.5 75 - SW 4 6 2 3 991.9 - -
21/11:30am -10.0 -14.4 -12.8 80 - SE 6 6 3 3 991.7 - -
21/11:00am -10.4 -15.0 -13.2 80 - S 7 9 4 5 991.8 - -
21/10:30am -9.0 -13.2 -15.5 59 - N 4 6 2 3 991.7 - -
21/10:00am -9.6 -13.7 -15.3 63 - NE 4 6 2 3 991.7 - -
21/09:30am -9.7 -13.5 -16.4 58 - NNE 2 6 1 3 991.6 - -
21/09:00am -10.1 -14.6 -15.0 67 - N 6 7 3 4 991.5 - -
21/08:30am -10.4 -14.5 -15.3 67 - NNW 4 6 2 3 991.4 - -
21/08:00am -11.2 -15.8 -15.9 68 - NW 6 7 3 4 991.3 - -
21/07:30am -10.4 -15.2 -16.4 61 - N 7 13 4 7 991.1 - -
21/07:00am -10.9 -15.6 -14.6 74 - N 7 11 4 6 991.0 - -
21/06:30am -11.2 -15.9 -15.7 69 - NNW 7 11 4 6 990.8 - -
21/06:00am -10.9 -16.0 -15.3 70 - N 9 13 5 7 990.7 - -
21/05:30am -10.7 -15.8 -15.1 70 - N 9 13 5 7 990.6 - -
21/05:00am -10.7 -15.8 -15.1 70 - N 9 11 5 6 990.3 - -
21/04:30am -10.7 -15.8 -15.1 70 - NNE 9 11 5 6 990.2 - -
21/04:00am -10.8 -14.9 -15.2 70 - NNE 4 6 2 3 990.2 - -
21/03:30am -10.6 -15.7 -15.7 66 - N 9 13 5 7 990.1 - -
21/03:00am -10.8 -15.3 -15.0 71 - N 6 7 3 4 989.9 - -
21/02:30am -10.8 -15.3 -14.8 72 - N 6 7 3 4 989.8 - -
21/02:00am -10.9 -15.0 -13.7 80 - NNW 4 6 2 3 989.8 - -
21/01:30am -10.4 -15.9 -15.1 68 - N 11 20 6 11 989.6 - -
21/01:00am -10.8 -15.2 -12.5 87 - WNW 6 7 3 4 989.5 - -
21/12:32am -10.7 -14.6 -11.9 91 - W 4 7 2 4 989.3 - -
21/12:30am -10.7 -15.0 -11.9 91 - W 6 7 3 4 989.3 - -
21/12:08am -10.6 -14.9 -11.8 91 - W 6 7 3 4 989.2 - -
21/12:00am -10.6 -14.6 -12.3 87 - W 4 7 2 4 989.0 - -
 
Date/Time
EDT
Temp
°C
App
Temp
°C
Dew
Point
Rel
Hum
%
Delta-T
°C
Wind Press
QNH
hPa
Press
MSL
hPa
Rain
since 9 am
mm
Dir
 
Spd
km/h
Gust
km/h
Spd
kts
Gust
kts
20/11:49pm -10.5 -14.4 -11.8 90 - W 4 6 2 3 989.0 - -
20/11:36pm -10.5 -14.1 -12.1 88 - W 2 6 1 3 988.9 - -
20/11:30pm -10.5 -14.5 -12.2 87 - W 4 6 2 3 988.9 - -
20/11:11pm -10.4 -14.4 -12.3 86 - W 4 6 2 3 988.8 - -
20/11:08pm -10.4 -14.4 -12.3 86 - W 4 6 2 3 988.8 - -
20/11:00pm -10.3 -14.3 -12.3 85 - W 4 6 2 3 988.8 - -
20/10:30pm -10.4 -15.0 -12.6 84 - W 7 9 4 5 988.7 - -
20/10:00pm -10.2 -15.1 -12.4 84 - WNW 9 11 5 6 988.6 - -
20/09:53pm -10.2 -15.2 -12.8 81 - WNW 9 13 5 7 988.5 - -
20/09:34pm -10.1 -15.0 -12.0 86 - WNW 9 13 5 7 988.4 - -
20/09:19pm -10.1 -15.4 -12.9 80 - WNW 11 13 6 7 988.3 - -
20/09:00pm -10.1 -15.4 -12.6 82 - W 11 15 6 8 988.2 - -
20/08:30pm -9.9 -15.2 -12.2 83 - W 11 15 6 8 987.9 - -
20/08:15pm -9.9 -15.6 -12.5 81 - W 13 19 7 10 987.9 - -
20/08:09pm -9.8 -15.5 -12.3 82 - W 13 19 7 10 987.9 - -
20/08:00pm -9.7 -15.4 -12.5 80 - W 13 15 7 8 987.8 - -
20/07:58pm -9.8 -15.5 -12.4 81 - W 13 15 7 8 987.8 - -
20/07:30pm -9.7 -15.4 -12.8 78 - WNW 13 15 7 8 987.5 - -
20/07:22pm -9.7 -15.4 -13.0 77 - WNW 13 17 7 9 987.5 - -
20/07:09pm -9.8 -15.2 -13.5 74 - WNW 11 15 6 8 987.4 - -
20/07:01pm -9.7 -15.1 -13.4 74 - WNW 11 15 6 8 987.3 - -
20/06:30pm -9.6 -14.9 -13.0 76 - WNW 11 13 6 7 987.0 - -
20/06:00pm -9.6 -14.5 -12.5 79 - WNW 9 13 5 7 986.9 - -
20/05:30pm -9.2 -13.7 -14.2 67 - NW 6 9 3 5 986.7 - -
20/05:00pm -8.9 -13.4 -14.1 66 - NNW 6 9 3 5 986.5 - -
20/04:30pm -9.9 -14.4 -15.0 66 - NW 6 7 3 4 986.4 - -
20/04:00pm -9.6 -14.1 -15.5 62 - WNW 6 6 3 3 986.2 - -
20/03:30pm -9.9 -14.6 -15.8 62 - W 7 9 4 5 986.0 - -
20/03:00pm -9.9 -15.0 -15.4 64 - W 9 11 5 6 985.8 - -
20/02:30pm -9.5 -13.7 -17.5 52 - WNW 4 7 2 4 985.6 - -
20/02:00pm -9.4 -13.7 -17.6 51 - NW 4 6 2 3 985.4 - -
20/01:30pm -7.0 -11.2 -17.4 43 - N 4 6 2 3 985.1 - -
20/01:00pm -7.7 -12.3 -17.3 46 - N 6 7 3 4 985.0 - -
20/12:30pm -8.6 -12.8 -16.7 52 - NNE 4 6 2 3 984.8 - -
20/12:00pm -9.6 -13.8 -16.3 58 - NE 4 6 2 3 984.6 - -
20/11:30am -9.8 -13.3 -17.3 54 - CALM 0 0 0 0 984.5 - -
20/11:00am -9.6 -13.1 -16.9 55 - CALM 0 4 0 2 984.4 - -
20/10:30am -9.8 -13.3 -17.1 55 - CALM 0 2 0 1 984.3 - -
20/10:00am -9.7 -13.1 -15.8 61 - CALM 0 2 0 1 984.2 - -
20/09:30am -10.3 -14.1 -15.2 67 - N 2 4 1 2 984.0 - -
20/09:00am -11.1 -14.9 -15.5 70 - NNW 2 6 1 3 983.8 - -
20/08:30am -11.3 -15.8 -15.3 72 - NNE 6 7 3 4 983.6 - -
20/08:00am -11.5 -16.0 -15.5 72 - NNE 6 6 3 3 983.4 - -
20/07:30am -11.6 -16.3 -15.1 75 - NNE 7 9 4 5 983.2 - -
20/07:00am -11.8 -16.3 -15.3 75 - NE 6 7 3 4 983.0 - -
20/06:30am -12.0 -16.7 -15.3 76 - NNE 7 9 4 5 982.7 - -
20/06:00am -12.0 -16.7 -15.8 73 - NNE 7 9 4 5 982.5 - -
20/05:30am -12.0 -16.5 -15.3 76 - NNE 6 6 3 3 982.3 - -
20/05:00am -11.8 -16.5 -15.3 75 - NE 7 7 4 4 981.9 - -
20/04:30am -11.8 -16.3 -15.3 75 - NE 6 7 3 4 981.7 - -
20/04:00am -11.9 -16.6 -15.1 77 - ENE 7 9 4 5 981.5 - -
20/03:30am -12.1 -16.8 -14.8 80 - ENE 7 9 4 5 981.3 - -
20/03:00am -12.0 -16.7 -14.4 82 - E 7 9 4 5 981.2 - -
20/02:30am -12.0 -17.0 -14.1 84 - E 9 11 5 6 981.0 - -
20/02:00am -12.0 -16.7 -14.9 79 - E 7 9 4 5 981.0 - -
20/01:30am -12.0 -16.6 -14.0 85 - E 7 9 4 5 980.9 - -
20/01:00am -12.1 -16.2 -13.8 87 - ENE 4 7 2 4 980.7 - -
20/12:30am -12.2 -15.9 -13.9 87 - N 2 7 1 4 980.5 - -
20/12:00am -12.1 -16.2 -13.7 88 - NNW 4 4 2 2 980.5 - -
 
Date/Time
EDT
Temp
°C
App
Temp
°C
Dew
Point
Rel
Hum
%
Delta-T
°C
Wind Press
QNH
hPa
Press
MSL
hPa
Rain
since 9 am
mm
Dir
 
Spd
km/h
Gust
km/h
Spd
kts
Gust
kts
19/11:30pm -12.2 -16.6 -13.6 89 - WNW 6 9 3 5 980.3 - -
19/11:00pm -12.2 -17.2 -13.8 88 - WNW 9 11 5 6 980.2 - -
19/10:30pm -11.9 -16.5 -13.8 86 - W 7 9 4 5 980.1 - -
19/10:00pm -11.7 -16.3 -13.7 85 - WNW 7 9 4 5 980.0 - -
19/09:30pm -11.7 -16.3 -13.6 86 - NW 7 11 4 6 980.0 - -
19/09:00pm -11.7 -17.5 -13.6 86 - WNW 13 15 7 8 980.0 - -
19/08:30pm -11.8 -17.6 -13.7 86 - WNW 13 17 7 9 979.9 - -
19/08:00pm -11.7 -18.2 -13.7 85 - WNW 17 19 9 10 979.8 - -
19/07:30pm -11.6 -18.1 -13.6 85 - WNW 17 19 9 10 979.8 - -
19/07:00pm -11.1 -16.5 -13.6 82 - WNW 11 19 6 10 979.6 - -
19/06:54pm -11.2 -16.6 -14.3 78 - W 11 15 6 8 979.6 - -

Other Formats:

Comma delimited format used in spreadsheet applications
http://www.bom.gov.au/fwo/IDT60803/IDT60803.89615.axf

JavaScript Object Notation format (JSON) in row-major order
http://www.bom.gov.au/fwo/IDT60803/IDT60803.89615.json